createdAt,value
2023-04-19T14:58:02.281Z,95689.16
2023-04-19T15:03:05.100Z,95694.94
2023-04-19T15:08:14.632Z,95702.72
2023-04-19T15:13:26.246Z,95689.91
2023-04-19T15:18:28.491Z,95692.31
2023-04-19T15:23:31.402Z,95699.97
2023-04-19T15:28:37.217Z,95687.69
2023-04-19T15:33:41.098Z,95667.34
2023-04-19T15:38:44.094Z,95667.03
2023-04-19T15:43:46.560Z,95658.22
2023-04-19T15:48:49.533Z,95684.84
2023-04-19T15:53:52.484Z,95675.09
2023-04-19T15:58:54.749Z,95672.16
2023-04-19T16:03:56.980Z,95668.56
2023-04-19T16:08:59.717Z,95672.34
2023-04-19T16:14:02.503Z,95679.31
2023-04-19T16:19:05.219Z,95678.66
2023-04-19T16:24:08.153Z,95674.88
2023-04-19T16:29:10.758Z,95681.31
2023-04-19T16:34:12.939Z,95682.50
2023-04-19T16:39:16.149Z,95684.38
2023-04-19T16:44:18.985Z,95692.47
2023-04-19T16:49:22.550Z,95687.47
2023-04-19T16:54:25.285Z,95699.38
2023-04-19T16:59:27.832Z,95717.19
2023-04-19T17:04:32.647Z,95727.72
2023-04-19T17:09:38.085Z,95736.31
2023-04-19T17:14:40.897Z,95741.09
2023-04-19T17:19:43.502Z,95745.72
2023-04-19T17:24:46.144Z,95747.81
2023-04-19T17:29:48.871Z,95763.88
2023-04-19T17:34:51.145Z,95762.38
2023-04-19T17:39:53.752Z,95775.56
2023-04-19T17:44:56.462Z,95780.25
2023-04-19T17:50:07.073Z,95805.16
2023-04-19T17:55:09.714Z,95812.19
2023-04-19T18:00:13.120Z,95815.31
2023-04-19T18:05:15.853Z,95816.16
2023-04-19T18:10:19.600Z,95822.72
2023-04-19T18:15:22.463Z,95815.34
2023-04-19T18:20:26.842Z,95830.72
2023-04-19T18:25:29.590Z,95833.91
2023-04-19T18:30:32.320Z,95839.25
2023-04-19T18:35:37.642Z,95841.88
2023-04-19T18:40:42.399Z,95855.59
2023-04-19T18:45:45.181Z,95874.00
2023-04-19T18:50:47.956Z,95861.91
2023-04-19T18:55:52.082Z,95863.56
2023-04-19T19:00:56.019Z,95874.88
2023-04-19T19:05:58.964Z,95858.94
2023-04-19T19:16:07.182Z,95895.22
2023-04-19T19:21:09.775Z,95890.50
2023-04-19T19:26:13.421Z,95877.81
2023-04-19T19:31:16.175Z,95868.84
2023-04-19T19:36:18.369Z,95890.03
2023-04-19T19:46:30.665Z,95882.06
2023-04-19T19:56:53.824Z,95869.94
2023-04-19T20:02:03.861Z,95868.28
2023-04-19T20:12:13.828Z,95895.19
2023-04-19T20:17:16.699Z,95882.81
2023-04-19T20:22:19.472Z,95873.50
2023-04-19T20:27:22.146Z,95857.75
2023-04-19T20:32:25.370Z,95867.84
2023-04-19T20:37:30.933Z,95898.47
2023-04-19T20:42:33.717Z,95874.91
2023-04-19T20:47:37.701Z,95865.50
2023-04-19T20:52:40.462Z,95876.91
2023-04-19T20:57:43.145Z,95883.56
2023-04-19T21:02:46.152Z,95889.97
2023-04-19T21:07:49.094Z,95841.75
2023-04-19T21:12:51.576Z,95856.72
2023-04-19T21:17:54.346Z,95851.50
2023-04-19T21:22:56.989Z,95845.63
2023-04-19T21:27:59.735Z,95864.38
2023-04-19T21:33:02.474Z,95838.69
2023-04-19T21:38:04.934Z,95856.22
2023-04-19T21:43:07.576Z,95887.88
2023-04-19T21:48:10.300Z,95854.38
2023-04-19T21:53:13.041Z,95879.78
2023-04-19T21:58:16.166Z,95866.47
2023-04-19T22:03:19.112Z,95867.56
2023-04-19T22:08:25.219Z,95849.38
2023-04-19T22:13:28.587Z,95868.00
2023-04-19T22:18:31.611Z,95853.94
2023-04-19T22:23:33.872Z,95853.00
2023-04-19T22:28:36.572Z,95845.19
2023-04-19T22:33:39.323Z,95858.03
2023-04-19T22:38:42.003Z,95871.66
2023-04-19T22:43:44.329Z,95843.69
2023-04-19T22:48:48.469Z,95839.91
2023-04-19T22:53:51.504Z,95867.78
2023-04-19T22:58:54.318Z,95839.84
2023-04-19T23:03:56.644Z,95850.56
2023-04-19T23:09:02.533Z,95837.44
2023-04-19T23:14:05.149Z,95832.88
2023-04-19T23:19:09.867Z,95859.47
2023-04-19T23:24:12.627Z,95812.22
2023-04-19T23:29:14.950Z,95827.25
2023-04-19T23:34:17.859Z,95842.16
2023-04-19T23:39:20.677Z,95844.38
2023-04-19T23:44:23.455Z,95848.91
2023-04-19T23:49:26.282Z,95821.03
2023-04-19T23:54:29.045Z,95819.41
2023-04-19T23:59:33.462Z,95824.59
